Time;durP1;ratioP1;P1;durP2;ratioP2;P2;SDS_P1;SDS_P2;PMS_P1;PMS_P2;Temp;Humidity;BMP_temperature;BMP_pressure;BME280_temperature;BME280_humidity;BME280_pressure;Samples;Min_cycle;Max_cycle;Signal;HPM_P1;HPM_P2
2021/05/26 00:01:32;;;;;;;2.50;2.00;;;;;;;;;;5010884;28;20025;-79
2021/05/26 00:03:58;;;;;;;2.90;2.20;;;;;;;;;;4983358;28;20034;-79
2021/05/26 00:06:23;;;;;;;2.67;2.08;;;;;;;;;;4997790;28;20113;-79
2021/05/26 00:08:48;;;;;;;2.25;2.05;;;;;;;;;;5013461;28;20029;-78
2021/05/26 00:11:14;;;;;;;3.67;2.10;;;;;;;;;;5014633;28;20575;-78
2021/05/26 00:13:40;;;;;;;3.80;1.63;;;;;;;;;;5014947;28;20099;-78
2021/05/26 00:16:06;;;;;;;2.78;1.90;;;;;;;;;;5013230;28;20105;-78
2021/05/26 00:18:32;;;;;;;2.45;2.15;;;;;;;;;;4982562;28;20164;-79
2021/05/26 00:20:58;;;;;;;1.98;1.20;;;;;;;;;;4998184;28;20029;-78
2021/05/26 00:23:23;;;;;;;1.25;0.95;;;;;;;;;;4997579;28;20434;-78
2021/05/26 00:25:49;;;;;;;1.00;0.90;;;;;;;;;;5013776;28;20026;-79
2021/05/26 00:28:14;;;;;;;1.30;1.20;;;;;;;;;;5016716;28;20025;-78
2021/05/26 00:30:50;;;;;;;1.55;1.33;;;;;;;;;;4992009;28;20030;-79
2021/05/26 00:33:16;;;;;;;1.52;1.40;;;;;;;;;;5013859;28;20032;-78
2021/05/26 00:35:42;;;;;;;1.95;1.52;;;;;;;;;;5002898;28;20018;-79
2021/05/26 00:38:07;;;;;;;2.22;1.80;;;;;;;;;;4995977;28;20029;-78
2021/05/26 00:40:33;;;;;;;2.10;1.90;;;;;;;;;;4997584;28;20041;-79
2021/05/26 00:42:59;;;;;;;3.05;1.70;;;;;;;;;;5014351;28;20375;-79
2021/05/26 00:45:24;;;;;;;2.95;1.42;;;;;;;;;;5015431;28;20029;-79
2021/05/26 00:47:51;;;;;;;3.50;1.50;;;;;;;;;;5016086;28;20056;-79
2021/05/26 00:50:16;;;;;;;1.63;1.48;;;;;;;;;;5009431;28;20129;-79
2021/05/26 00:52:42;;;;;;;1.50;1.40;;;;;;;;;;5014909;28;20097;-79
2021/05/26 00:55:12;;;;;;;1.33;1.23;;;;;;;;;;5010056;28;20033;-79
2021/05/26 00:57:38;;;;;;;2.13;1.55;;;;;;;;;;5013661;28;20018;-79
2021/05/26 01:00:05;;;;;;;1.67;1.20;;;;;;;;;;5014576;28;20045;-78
2021/05/26 01:02:30;;;;;;;1.60;1.50;;;;;;;;;;5012615;28;20470;-78
2021/05/26 01:04:55;;;;;;;3.10;1.50;;;;;;;;;;4980190;28;20030;-78
2021/05/26 01:07:22;;;;;;;1.92;1.50;;;;;;;;;;5010367;28;20034;-79
2021/05/26 01:09:47;;;;;;;2.17;1.58;;;;;;;;;;4981192;28;20071;-78
2021/05/26 01:12:14;;;;;;;2.10;1.30;;;;;;;;;;5017126;28;20057;-78
2021/05/26 01:14:39;;;;;;;3.15;1.42;;;;;;;;;;5014615;28;20033;-79
2021/05/26 01:17:05;;;;;;;2.75;1.40;;;;;;;;;;5013429;28;20014;-79
2021/05/26 01:19:30;;;;;;;1.75;1.50;;;;;;;;;;4996085;28;20032;-79
2021/05/26 01:21:55;;;;;;;2.83;1.48;;;;;;;;;;4995814;28;20062;-79
2021/05/26 01:24:20;;;;;;;3.20;1.60;;;;;;;;;;5013044;28;20415;-79
2021/05/26 01:26:46;;;;;;;2.38;1.50;;;;;;;;;;5014536;28;20042;-78
2021/05/26 01:29:12;;;;;;;1.60;1.50;;;;;;;;;;5012363;28;20019;-79
2021/05/26 01:31:38;;;;;;;9.15;1.77;;;;;;;;;;4982541;28;20088;-79
2021/05/26 01:34:03;;;;;;;3.08;1.02;;;;;;;;;;5016349;28;20459;-79
2021/05/26 01:36:29;;;;;;;3.33;1.17;;;;;;;;;;5020744;28;20030;-80
2021/05/26 01:38:54;;;;;;;5.13;0.90;;;;;;;;;;4986721;28;20049;-79
2021/05/26 01:41:20;;;;;;;0.90;0.70;;;;;;;;;;5001711;28;20026;-80
2021/05/26 01:43:46;;;;;;;1.77;0.70;;;;;;;;;;5019229;28;20025;-79
2021/05/26 01:46:11;;;;;;;1.52;0.50;;;;;;;;;;5015000;28;20080;-79
2021/05/26 01:48:37;;;;;;;2.35;0.50;;;;;;;;;;5014745;28;20030;-79
2021/05/26 01:51:02;;;;;;;3.03;0.70;;;;;;;;;;5002178;28;20862;-78
2021/05/26 01:53:29;;;;;;;1.45;0.65;;;;;;;;;;5012068;28;20141;-79
2021/05/26 01:55:54;;;;;;;3.08;0.60;;;;;;;;;;5014146;28;20033;-78
2021/05/26 01:58:19;;;;;;;3.45;0.80;;;;;;;;;;4995838;28;20367;-78
2021/05/26 02:00:45;;;;;;;1.05;0.60;;;;;;;;;;5010262;28;20022;-79
2021/05/26 02:03:10;;;;;;;2.83;0.70;;;;;;;;;;5012920;28;20032;-79
2021/05/26 02:05:36;;;;;;;5.30;0.93;;;;;;;;;;4986182;28;20105;-79
2021/05/26 02:08:02;;;;;;;3.65;0.90;;;;;;;;;;4982784;28;20037;-79
2021/05/26 02:13:11;;;;;;;1.05;0.90;;;;;;;;;;5007968;28;20025;-79
2021/05/26 02:15:36;;;;;;;2.08;1.00;;;;;;;;;;4988378;28;20022;-78
2021/05/26 02:18:02;;;;;;;1.80;1.00;;;;;;;;;;4980434;28;20091;-78
2021/05/26 02:20:27;;;;;;;1.77;1.10;;;;;;;;;;4979183;28;20125;-78
2021/05/26 02:22:52;;;;;;;1.45;1.05;;;;;;;;;;4978801;28;20026;-78
2021/05/26 02:25:18;;;;;;;2.97;1.30;;;;;;;;;;5005479;28;20026;-78
2021/05/26 02:27:43;;;;;;;1.67;1.02;;;;;;;;;;5013363;28;20030;-78
2021/05/26 02:30:09;;;;;;;1.60;0.95;;;;;;;;;;5001552;28;20067;-79
2021/05/26 02:32:34;;;;;;;3.20;1.17;;;;;;;;;;4996058;28;20026;-79
2021/05/26 02:34:59;;;;;;;1.35;0.95;;;;;;;;;;4993132;28;20187;-79
2021/05/26 02:37:26;;;;;;;2.45;1.15;;;;;;;;;;4979959;28;20062;-79
2021/05/26 02:39:51;;;;;;;1.77;1.05;;;;;;;;;;4995093;28;20447;-78
2021/05/26 02:42:16;;;;;;;1.45;1.17;;;;;;;;;;4979529;28;20022;-78
2021/05/26 02:44:41;;;;;;;1.13;1.00;;;;;;;;;;4994294;28;20009;-78
2021/05/26 02:47:07;;;;;;;1.90;1.00;;;;;;;;;;4995857;28;20076;-78
2021/05/26 02:49:33;;;;;;;2.50;0.80;;;;;;;;;;4996153;28;20112;-79
2021/05/26 02:51:58;;;;;;;2.20;1.00;;;;;;;;;;5015320;28;20026;-78
2021/05/26 02:54:24;;;;;;;2.03;1.00;;;;;;;;;;5015413;28;20097;-78
2021/05/26 02:56:49;;;;;;;1.73;1.00;;;;;;;;;;5016455;28;20018;-78
2021/05/26 02:59:14;;;;;;;2.92;1.05;;;;;;;;;;4997926;28;20526;-78
2021/05/26 03:01:40;;;;;;;2.35;0.90;;;;;;;;;;4998449;28;20033;-78
2021/05/26 03:04:05;;;;;;;3.00;0.82;;;;;;;;;;4998290;28;20033;-78
2021/05/26 03:06:30;;;;;;;3.60;0.90;;;;;;;;;;5012598;28;20072;-79
2021/05/26 03:08:56;;;;;;;2.20;1.00;;;;;;;;;;5016510;28;20364;-78
2021/05/26 03:11:21;;;;;;;3.28;1.30;;;;;;;;;;4999363;28;20037;-78
2021/05/26 03:13:46;;;;;;;3.80;1.17;;;;;;;;;;5019083;28;20018;-78
2021/05/26 03:16:12;;;;;;;1.77;1.35;;;;;;;;;;5000236;28;20014;-79
2021/05/26 03:18:37;;;;;;;2.42;1.42;;;;;;;;;;5016668;28;20121;-78
2021/05/26 03:21:03;;;;;;;3.78;1.38;;;;;;;;;;5013462;28;20023;-78
2021/05/26 03:23:28;;;;;;;8.60;1.60;;;;;;;;;;5014251;28;20105;-78
2021/05/26 03:25:54;;;;;;;2.92;1.45;;;;;;;;;;5015974;28;20109;-78
2021/05/26 03:28:19;;;;;;;2.85;1.55;;;;;;;;;;4998573;28;20419;-79
2021/05/26 03:30:46;;;;;;;3.22;1.73;;;;;;;;;;5012746;28;20617;-79
2021/05/26 03:33:12;;;;;;;2.30;1.65;;;;;;;;;;4994495;28;20018;-79
2021/05/26 03:35:39;;;;;;;3.03;1.40;;;;;;;;;;5013858;28;20010;-79
2021/05/26 03:38:05;;;;;;;2.13;1.40;;;;;;;;;;4996867;28;20050;-79
2021/05/26 03:40:30;;;;;;;6.07;1.73;;;;;;;;;;5014402;28;20355;-79
2021/05/26 03:42:56;;;;;;;2.83;1.70;;;;;;;;;;5014810;28;20029;-79
2021/05/26 03:45:21;;;;;;;2.80;1.63;;;;;;;;;;5015501;28;20518;-79
2021/05/26 03:47:46;;;;;;;2.25;1.70;;;;;;;;;;5015166;28;20030;-78
2021/05/26 03:50:12;;;;;;;2.75;2.13;;;;;;;;;;5017958;28;20133;-79
2021/05/26 03:52:47;;;;;;;2.25;2.05;;;;;;;;;;5002378;28;20025;-79
2021/05/26 03:55:16;;;;;;;2.40;1.90;;;;;;;;;;5011586;28;20033;-79
2021/05/26 03:57:42;;;;;;;3.58;1.90;;;;;;;;;;5015592;28;20045;-80
2021/05/26 04:00:09;;;;;;;2.22;1.80;;;;;;;;;;4999981;28;20041;-79
2021/05/26 04:02:37;;;;;;;2.83;2.05;;;;;;;;;;4995561;28;20056;-80
2021/05/26 04:05:03;;;;;;;1.90;1.58;;;;;;;;;;5009962;28;20413;-81
2021/05/26 04:07:30;;;;;;;2.85;1.50;;;;;;;;;;4998492;28;20030;-80
2021/05/26 04:09:55;;;;;;;1.58;1.48;;;;;;;;;;4980932;28;20022;-80
2021/05/26 04:12:25;;;;;;;3.42;1.73;;;;;;;;;;4995724;28;20045;-81
2021/05/26 04:14:52;;;;;;;2.28;1.58;;;;;;;;;;4989936;28;20022;-79
2021/05/26 04:17:17;;;;;;;2.67;1.58;;;;;;;;;;4987935;28;20117;-79
2021/05/26 04:19:44;;;;;;;1.55;1.30;;;;;;;;;;5014518;28;20060;-81
2021/05/26 04:22:10;;;;;;;2.05;1.00;;;;;;;;;;5013127;28;20403;-80
2021/05/26 04:24:36;;;;;;;1.20;1.10;;;;;;;;;;4992349;28;20704;-79
2021/05/26 04:27:01;;;;;;;2.45;0.93;;;;;;;;;;5009888;28;20032;-79
2021/05/26 04:29:27;;;;;;;1.48;1.15;;;;;;;;;;4979792;28;20062;-80
2021/05/26 04:31:52;;;;;;;4.82;1.27;;;;;;;;;;4993829;28;20042;-80
2021/05/26 04:34:18;;;;;;;2.40;1.23;;;;;;;;;;4983628;28;20098;-80
2021/05/26 04:36:44;;;;;;;1.55;1.00;;;;;;;;;;5014586;28;20022;-80
2021/05/26 04:39:09;;;;;;;3.55;1.30;;;;;;;;;;5006578;28;20030;-80
2021/05/26 04:41:34;;;;;;;3.42;1.45;;;;;;;;;;5002614;28;20036;-79
2021/05/26 04:44:00;;;;;;;2.65;1.20;;;;;;;;;;5012978;28;20030;-81
2021/05/26 04:46:27;;;;;;;4.07;1.20;;;;;;;;;;5015708;28;20033;-81
2021/05/26 04:48:52;;;;;;;2.78;0.90;;;;;;;;;;5015164;28;20089;-79
2021/05/26 04:51:17;;;;;;;3.60;1.15;;;;;;;;;;5011014;28;20069;-80
2021/05/26 04:53:42;;;;;;;4.00;1.00;;;;;;;;;;5012859;28;20095;-80
2021/05/26 04:56:08;;;;;;;4.00;1.00;;;;;;;;;;5013062;28;20018;-80
2021/05/26 04:58:33;;;;;;;2.55;1.33;;;;;;;;;;4996023;28;20364;-81
2021/05/26 05:01:00;;;;;;;2.00;1.05;;;;;;;;;;5000754;28;20022;-80
2021/05/26 05:03:25;;;;;;;2.88;1.00;;;;;;;;;;5002699;28;20352;-81
2021/05/26 05:05:50;;;;;;;3.38;1.17;;;;;;;;;;4997778;28;20028;-81
2021/05/26 05:08:16;;;;;;;4.85;1.33;;;;;;;;;;5024728;28;20028;-81
2021/05/26 05:10:41;;;;;;;1.33;0.88;;;;;;;;;;4982367;28;20084;-80
2021/05/26 05:13:06;;;;;;;2.10;1.10;;;;;;;;;;5014638;28;20058;-80
2021/05/26 05:15:32;;;;;;;4.05;1.00;;;;;;;;;;4982479;28;20072;-81
2021/05/26 05:17:57;;;;;;;2.78;1.00;;;;;;;;;;4998676;28;20046;-80
2021/05/26 05:20:24;;;;;;;2.97;0.80;;;;;;;;;;4990441;28;20107;-82
2021/05/26 05:22:53;;;;;;;3.05;0.75;;;;;;;;;;4996619;28;20026;-80
2021/05/26 05:25:19;;;;;;;3.22;0.90;;;;;;;;;;5013177;28;20129;-79
2021/05/26 05:27:45;;;;;;;3.58;1.20;;;;;;;;;;5012607;28;20029;-81
2021/05/26 05:30:11;;;;;;;1.00;0.70;;;;;;;;;;5014758;28;20085;-81
2021/05/26 05:32:36;;;;;;;2.10;0.98;;;;;;;;;;5008221;28;20485;-81
2021/05/26 05:35:02;;;;;;;3.47;1.20;;;;;;;;;;5013378;28;20018;-81
2021/05/26 05:37:27;;;;;;;3.53;0.98;;;;;;;;;;5014281;28;20022;-80
2021/05/26 05:39:53;;;;;;;0.95;0.88;;;;;;;;;;5005659;28;20021;-81
2021/05/26 05:42:18;;;;;;;2.33;1.00;;;;;;;;;;5034781;28;20021;-81
2021/05/26 05:44:44;;;;;;;4.25;1.08;;;;;;;;;;5023309;28;20026;-80
2021/05/26 05:47:09;;;;;;;3.20;1.05;;;;;;;;;;5008947;28;20052;-81
2021/05/26 05:49:35;;;;;;;3.17;1.50;;;;;;;;;;5013975;28;20053;-81
2021/05/26 05:52:00;;;;;;;3.75;0.98;;;;;;;;;;5026593;28;20400;-81
2021/05/26 05:54:25;;;;;;;1.70;0.80;;;;;;;;;;5017240;28;20355;-80
2021/05/26 05:56:50;;;;;;;1.75;0.80;;;;;;;;;;5004238;28;20045;-81
2021/05/26 05:59:15;;;;;;;1.27;0.80;;;;;;;;;;4997180;28;20129;-81
2021/05/26 06:01:41;;;;;;;1.60;0.80;;;;;;;;;;4996079;28;20084;-81
2021/05/26 06:04:06;;;;;;;3.10;0.80;;;;;;;;;;4998147;28;20032;-81
2021/05/26 06:06:31;;;;;;;2.45;0.70;;;;;;;;;;5012408;28;20068;-82
2021/05/26 06:08:56;;;;;;;0.82;0.60;;;;;;;;;;5011090;28;20028;-81
2021/05/26 06:11:22;;;;;;;2.67;0.60;;;;;;;;;;5015503;28;20029;-80
2021/05/26 06:13:49;;;;;;;1.10;0.50;;;;;;;;;;4996552;28;20030;-81
2021/05/26 06:16:15;;;;;;;1.10;0.60;;;;;;;;;;4996066;28;20022;-81
2021/05/26 06:18:40;;;;;;;0.88;0.50;;;;;;;;;;5014653;28;20372;-80
2021/05/26 06:21:05;;;;;;;2.40;0.55;;;;;;;;;;5015674;28;20030;-81
2021/05/26 06:23:31;;;;;;;5.07;0.60;;;;;;;;;;5009344;28;20022;-81
2021/05/26 06:25:56;;;;;;;1.15;0.57;;;;;;;;;;5017901;28;20458;-81
2021/05/26 06:28:21;;;;;;;0.73;0.50;;;;;;;;;;4999999;28;20495;-82
2021/05/26 06:30:47;;;;;;;1.08;0.50;;;;;;;;;;5016321;28;20034;-81
2021/05/26 06:33:12;;;;;;;1.08;0.45;;;;;;;;;;5010665;28;20113;-80
2021/05/26 06:35:39;;;;;;;1.10;0.50;;;;;;;;;;5021566;28;20030;-81
2021/05/26 06:38:04;;;;;;;0.82;0.40;;;;;;;;;;5038359;28;20030;-80
2021/05/26 06:40:29;;;;;;;2.42;0.40;;;;;;;;;;5049968;28;20029;-81
2021/05/26 06:42:55;;;;;;;0.68;0.50;;;;;;;;;;5040404;28;20100;-81
2021/05/26 06:45:20;;;;;;;1.08;0.45;;;;;;;;;;5002517;28;20087;-81
2021/05/26 06:47:45;;;;;;;0.70;0.57;;;;;;;;;;5037366;28;20156;-80
2021/05/26 06:50:11;;;;;;;1.20;0.60;;;;;;;;;;5036153;28;20075;-80
2021/05/26 06:52:37;;;;;;;2.05;0.40;;;;;;;;;;5019035;28;20021;-82
2021/05/26 06:55:02;;;;;;;0.90;0.50;;;;;;;;;;5013805;28;20022;-80
2021/05/26 06:57:28;;;;;;;0.50;0.43;;;;;;;;;;5000261;28;20018;-81
2021/05/26 06:59:53;;;;;;;1.17;0.50;;;;;;;;;;5014444;28;20026;-81
2021/05/26 07:02:18;;;;;;;2.13;0.50;;;;;;;;;;5024901;28;20061;-80
2021/05/26 07:04:43;;;;;;;1.27;0.50;;;;;;;;;;4999863;28;20026;-81
2021/05/26 07:07:09;;;;;;;2.03;0.47;;;;;;;;;;5016074;28;20014;-81
2021/05/26 07:09:34;;;;;;;0.30;0.30;;;;;;;;;;5016120;28;20026;-81
2021/05/26 07:11:59;;;;;;;1.13;0.38;;;;;;;;;;5017313;28;20021;-81
2021/05/26 07:14:24;;;;;;;1.40;0.50;;;;;;;;;;5016051;28;20114;-81
2021/05/26 07:16:50;;;;;;;0.60;0.40;;;;;;;;;;4983495;28;20030;-81
2021/05/26 07:19:15;;;;;;;1.90;0.57;;;;;;;;;;4998620;28;20022;-80
2021/05/26 07:21:41;;;;;;;0.57;0.38;;;;;;;;;;5016297;28;20395;-80
2021/05/26 07:24:07;;;;;;;0.88;0.45;;;;;;;;;;5012165;28;20022;-81
2021/05/26 07:26:34;;;;;;;1.10;0.50;;;;;;;;;;5015714;28;20422;-81
2021/05/26 07:28:59;;;;;;;1.20;0.50;;;;;;;;;;5015153;28;20076;-81
2021/05/26 07:31:24;;;;;;;0.90;0.57;;;;;;;;;;5000035;28;20050;-81
2021/05/26 07:33:50;;;;;;;1.05;0.47;;;;;;;;;;5000416;28;20023;-81
2021/05/26 07:36:15;;;;;;;1.45;0.60;;;;;;;;;;4997363;28;20026;-81
2021/05/26 07:38:40;;;;;;;1.15;0.60;;;;;;;;;;4998469;28;20321;-81
2021/05/26 07:41:06;;;;;;;2.30;0.50;;;;;;;;;;4983164;28;20037;-81
2021/05/26 07:43:33;;;;;;;1.60;0.60;;;;;;;;;;4997746;28;20089;-80
2021/05/26 07:45:58;;;;;;;1.05;0.50;;;;;;;;;;4997519;28;20357;-81
2021/05/26 07:48:24;;;;;;;1.17;0.70;;;;;;;;;;5019232;28;20026;-80
2021/05/26 07:50:49;;;;;;;2.20;0.60;;;;;;;;;;5014733;28;20184;-81
2021/05/26 07:53:14;;;;;;;0.90;0.60;;;;;;;;;;5018386;28;20018;-80
2021/05/26 07:55:39;;;;;;;2.65;0.60;;;;;;;;;;5019650;28;20070;-80
2021/05/26 07:58:05;;;;;;;0.82;0.57;;;;;;;;;;5007840;28;20103;-81
2021/05/26 08:00:30;;;;;;;1.10;0.60;;;;;;;;;;5009468;28;20029;-81
2021/05/26 08:02:56;;;;;;;1.13;0.77;;;;;;;;;;5001123;28;20052;-80
2021/05/26 08:05:23;;;;;;;0.60;0.60;;;;;;;;;;5019166;28;20061;-81
2021/05/26 08:07:49;;;;;;;0.80;0.60;;;;;;;;;;5001582;28;20048;-81
2021/05/26 08:10:15;;;;;;;2.35;0.70;;;;;;;;;;5009574;28;20030;-81
2021/05/26 08:12:41;;;;;;;1.15;0.70;;;;;;;;;;5021286;28;20060;-81
2021/05/26 08:15:07;;;;;;;0.98;0.60;;;;;;;;;;5025394;28;20017;-81
2021/05/26 08:17:33;;;;;;;1.95;0.73;;;;;;;;;;5029920;28;20094;-81
2021/05/26 08:20:02;;;;;;;4.15;0.55;;;;;;;;;;5019734;28;20505;-81
2021/05/26 08:22:28;;;;;;;2.38;0.80;;;;;;;;;;5019647;28;20475;-81
2021/05/26 08:24:53;;;;;;;1.95;0.50;;;;;;;;;;5005161;28;20057;-81
2021/05/26 08:27:18;;;;;;;5.00;0.45;;;;;;;;;;4986336;28;20113;-82
2021/05/26 08:29:44;;;;;;;1.52;0.50;;;;;;;;;;5002926;28;20387;-81
2021/05/26 08:32:09;;;;;;;1.25;0.70;;;;;;;;;;5001649;28;20073;-80
2021/05/26 08:34:34;;;;;;;1.27;0.50;;;;;;;;;;5011635;28;20029;-81
2021/05/26 08:36:59;;;;;;;1.05;0.30;;;;;;;;;;5018219;28;20448;-81
2021/05/26 08:39:25;;;;;;;1.15;0.45;;;;;;;;;;5008111;28;20014;-81
2021/05/26 08:41:51;;;;;;;1.00;0.40;;;;;;;;;;5018337;28;20026;-81
2021/05/26 08:44:16;;;;;;;1.35;0.40;;;;;;;;;;5006034;28;20023;-81
2021/05/26 08:46:42;;;;;;;1.00;0.40;;;;;;;;;;4981461;28;20033;-81
2021/05/26 08:49:08;;;;;;;2.47;0.60;;;;;;;;;;5010308;28;20046;-81
2021/05/26 08:51:33;;;;;;;0.88;0.50;;;;;;;;;;5000896;28;20118;-81
2021/05/26 08:53:58;;;;;;;0.55;0.30;;;;;;;;;;5001162;28;20662;-81
2021/05/26 08:56:25;;;;;;;2.40;0.30;;;;;;;;;;5002208;28;20436;-81
2021/05/26 08:58:50;;;;;;;0.70;0.50;;;;;;;;;;5017819;28;20025;-81
2021/05/26 09:01:15;;;;;;;1.10;0.80;;;;;;;;;;5001973;28;20180;-81
2021/05/26 09:03:41;;;;;;;1.30;0.70;;;;;;;;;;5017169;28;20356;-82
2021/05/26 09:06:10;;;;;;;1.95;0.50;;;;;;;;;;4999803;28;20033;-81
2021/05/26 09:08:44;;;;;;;1.70;0.52;;;;;;;;;;5013894;28;20021;-81
2021/05/26 09:11:09;;;;;;;0.77;0.40;;;;;;;;;;5015895;28;20021;-81
2021/05/26 09:13:36;;;;;;;0.90;0.52;;;;;;;;;;4983423;28;20026;-81
2021/05/26 09:16:21;;;;;;;1.10;0.30;;;;;;;;;;4994559;28;20023;-82
2021/05/26 09:18:53;;;;;;;1.92;0.30;;;;;;;;;;4996033;28;20049;-81
2021/05/26 09:21:38;;;;;;;3.20;0.40;;;;;;;;;;5001903;28;20050;-81
2021/05/26 09:24:24;;;;;;;2.65;0.60;;;;;;;;;;5006725;28;20094;-82
2021/05/26 09:26:49;;;;;;;2.05;0.63;;;;;;;;;;4994670;28;20491;-81
2021/05/26 09:29:22;;;;;;;1.10;0.50;;;;;;;;;;5014948;28;20029;-82
2021/05/26 09:31:54;;;;;;;1.48;0.50;;;;;;;;;;5018446;28;20363;-81
2021/05/26 09:34:36;;;;;;;3.50;0.50;;;;;;;;;;5018512;28;20018;-82
2021/05/26 09:37:02;;;;;;;1.67;0.50;;;;;;;;;;5023434;28;20121;-81
2021/05/26 09:39:43;;;;;;;0.90;0.43;;;;;;;;;;5016764;28;20026;-82
2021/05/26 09:42:24;;;;;;;0.70;0.35;;;;;;;;;;5020492;28;20018;-82
2021/05/26 09:45:09;;;;;;;1.30;0.40;;;;;;;;;;5013483;28;20388;-80
2021/05/26 09:47:34;;;;;;;;;;;;;;;;;;5022816;28;20143;-82
2021/05/26 09:50:16;;;;;;;0.40;0.30;;;;;;;;;;5023542;28;19917;-82
2021/05/26 09:53:00;;;;;;;2.95;0.50;;;;;;;;;;5012731;28;20022;-82
2021/05/26 09:55:28;;;;;;;1.35;0.40;;;;;;;;;;5020166;28;20018;-82
2021/05/26 09:57:53;;;;;;;0.60;0.40;;;;;;;;;;5003930;28;20090;-81
2021/05/26 10:00:19;;;;;;;0.65;0.40;;;;;;;;;;5002612;28;20057;-81
2021/05/26 10:02:45;;;;;;;5.70;0.52;;;;;;;;;;5015130;28;20050;-81
2021/05/26 10:05:10;;;;;;;1.42;0.50;;;;;;;;;;5004608;28;20053;-80
2021/05/26 10:07:37;;;;;;;0.40;0.30;;;;;;;;;;5007857;28;20023;-81
2021/05/26 10:10:03;;;;;;;0.60;0.40;;;;;;;;;;5000496;28;20073;-80
2021/05/26 10:12:32;;;;;;;0.50;0.40;;;;;;;;;;5017592;28;20071;-81
2021/05/26 10:14:59;;;;;;;0.60;0.43;;;;;;;;;;5008848;28;20100;-81
2021/05/26 10:17:35;;;;;;;0.70;0.43;;;;;;;;;;4997928;28;20025;-81
2021/05/26 10:20:00;;;;;;;0.50;0.40;;;;;;;;;;4996387;28;20077;-80
2021/05/26 10:22:27;;;;;;;0.88;0.50;;;;;;;;;;5013098;28;20367;-81
2021/05/26 10:24:53;;;;;;;2.70;0.52;;;;;;;;;;5003795;28;20045;-81
2021/05/26 10:27:39;;;;;;;1.48;0.50;;;;;;;;;;5000697;28;20034;-80
2021/05/26 10:30:09;;;;;;;1.75;0.57;;;;;;;;;;5018162;28;20022;-81
2021/05/26 10:32:53;;;;;;;0.77;0.50;;;;;;;;;;5024209;28;20026;-81
2021/05/26 10:35:20;;;;;;;2.15;0.38;;;;;;;;;;5006703;28;20025;-81
2021/05/26 10:37:46;;;;;;;2.60;0.50;;;;;;;;;;4987180;28;20121;-81
2021/05/26 10:40:30;;;;;;;2.10;0.50;;;;;;;;;;5006264;28;20025;-81
2021/05/26 10:43:18;;;;;;;2.30;0.47;;;;;;;;;;5016238;28;20030;-81
2021/05/26 10:45:44;;;;;;;1.67;0.60;;;;;;;;;;5016713;28;20026;-81
2021/05/26 10:48:10;;;;;;;0.75;0.40;;;;;;;;;;5015386;28;20050;-80
2021/05/26 10:50:45;;;;;;;1.83;0.60;;;;;;;;;;4998977;28;20081;-80
2021/05/26 10:53:11;;;;;;;1.13;0.45;;;;;;;;;;4994220;28;20014;-80
2021/05/26 10:55:40;;;;;;;3.08;0.60;;;;;;;;;;4997780;28;20076;-81
2021/05/26 10:58:21;;;;;;;2.05;0.50;;;;;;;;;;4993740;28;20029;-81
2021/05/26 11:00:49;;;;;;;3.75;0.57;;;;;;;;;;4997536;28;20041;-81
2021/05/26 11:03:23;;;;;;;0.40;0.40;;;;;;;;;;5015880;28;20120;-81
2021/05/26 11:05:49;;;;;;;2.30;0.35;;;;;;;;;;5012639;28;20018;-81
2021/05/26 11:11:26;;;;;;;2.15;0.50;;;;;;;;;;4994121;28;20082;-82
2021/05/26 11:14:04;;;;;;;0.93;0.50;;;;;;;;;;5008175;28;20018;-81
2021/05/26 11:16:41;;;;;;;2.63;0.50;;;;;;;;;;5000139;28;20037;-81
2021/05/26 11:19:14;;;;;;;3.08;0.50;;;;;;;;;;4982866;28;20127;-80
2021/05/26 11:22:06;;;;;;;3.70;0.40;;;;;;;;;;4992634;28;20034;-80
2021/05/26 11:24:33;;;;;;;0.40;0.40;;;;;;;;;;4995134;28;20030;-80
2021/05/26 11:27:02;;;;;;;1.17;0.50;;;;;;;;;;4993384;28;20101;-80
2021/05/26 11:29:35;;;;;;;0.70;0.43;;;;;;;;;;4993840;28;20353;-81
2021/05/26 11:32:07;;;;;;;1.73;0.40;;;;;;;;;;4993404;28;20097;-80
2021/05/26 11:34:34;;;;;;;0.77;0.43;;;;;;;;;;4997299;28;20029;-80
2021/05/26 11:37:00;;;;;;;2.15;0.50;;;;;;;;;;4992779;28;20054;-81
2021/05/26 11:39:27;;;;;;;1.23;0.40;;;;;;;;;;4981229;28;20033;-80
2021/05/26 11:41:58;;;;;;;1.35;0.40;;;;;;;;;;4996965;28;20429;-81
2021/05/26 11:44:32;;;;;;;1.35;0.70;;;;;;;;;;4990141;28;20080;-80
2021/05/26 11:46:58;;;;;;;1.17;0.47;;;;;;;;;;4981433;28;20429;-81
2021/05/26 11:49:24;;;;;;;4.32;0.50;;;;;;;;;;4984690;28;20061;-81
2021/05/26 11:51:59;;;;;;;1.95;0.50;;;;;;;;;;5000689;28;20035;-80
2021/05/26 11:54:26;;;;;;;0.88;0.35;;;;;;;;;;4998995;28;20049;-81
2021/05/26 11:56:57;;;;;;;1.08;0.40;;;;;;;;;;5000409;28;20026;-80
2021/05/26 11:59:26;;;;;;;1.35;0.45;;;;;;;;;;4997232;28;20041;-80
2021/05/26 12:01:51;;;;;;;2.38;0.50;;;;;;;;;;4992790;28;20027;-81
2021/05/26 12:04:18;;;;;;;0.65;0.40;;;;;;;;;;4994375;28;20041;-80
2021/05/26 12:06:44;;;;;;;0.70;0.40;;;;;;;;;;4993789;28;20101;-80
2021/05/26 12:09:23;;;;;;;1.88;0.50;;;;;;;;;;5003805;28;20030;-81
2021/05/26 12:11:48;;;;;;;1.60;0.50;;;;;;;;;;4993039;28;20030;-81
2021/05/26 12:14:24;;;;;;;2.28;0.50;;;;;;;;;;4994060;28;20118;-80
2021/05/26 12:16:50;;;;;;;3.30;0.50;;;;;;;;;;4995095;28;20511;-81
2021/05/26 12:19:17;;;;;;;1.58;0.60;;;;;;;;;;5003157;28;20047;-80
2021/05/26 12:21:54;;;;;;;1.35;0.70;;;;;;;;;;4997742;28;20030;-80
2021/05/26 12:24:19;;;;;;;3.38;0.80;;;;;;;;;;5004239;28;20158;-81
2021/05/26 12:26:45;;;;;;;2.30;0.60;;;;;;;;;;5000960;28;20034;-81
2021/05/26 12:29:11;;;;;;;1.30;0.60;;;;;;;;;;5005457;28;20045;-81
2021/05/26 12:31:37;;;;;;;2.25;0.60;;;;;;;;;;4984552;28;20023;-80
2021/05/26 12:34:03;;;;;;;1.98;0.82;;;;;;;;;;4994311;28;20061;-80
2021/05/26 12:36:31;;;;;;;4.13;0.77;;;;;;;;;;4998862;28;20022;-81
2021/05/26 12:39:00;;;;;;;2.25;0.80;;;;;;;;;;4998012;28;20015;-80
2021/05/26 12:41:35;;;;;;;1.67;0.50;;;;;;;;;;5006063;28;20029;-82
2021/05/26 12:44:07;;;;;;;3.30;0.80;;;;;;;;;;5011302;28;20038;-81
2021/05/26 12:46:33;;;;;;;1.35;0.50;;;;;;;;;;5003753;28;20019;-81
2021/05/26 12:48:58;;;;;;;2.00;0.50;;;;;;;;;;5003554;28;20102;-80
2021/05/26 12:51:23;;;;;;;2.10;0.60;;;;;;;;;;5005215;28;20045;-81
2021/05/26 12:53:55;;;;;;;1.75;0.50;;;;;;;;;;5021151;28;20026;-80
2021/05/26 12:56:27;;;;;;;1.73;0.60;;;;;;;;;;5021309;28;20006;-82
2021/05/26 12:58:54;;;;;;;1.95;0.52;;;;;;;;;;5020637;28;20034;-81
2021/05/26 13:01:19;;;;;;;1.33;0.50;;;;;;;;;;5033453;28;20093;-81
2021/05/26 13:03:46;;;;;;;1.02;0.50;;;;;;;;;;5040973;28;20077;-80
2021/05/26 13:06:16;;;;;;;0.75;0.30;;;;;;;;;;5004903;28;20082;-80
2021/05/26 13:08:58;;;;;;;1.20;0.68;;;;;;;;;;5000947;28;20356;-81
2021/05/26 13:11:43;;;;;;;1.40;0.40;;;;;;;;;;5003694;28;20443;-81
2021/05/26 13:14:08;;;;;;;1.52;0.50;;;;;;;;;;5018427;28;20037;-81
2021/05/26 13:16:37;;;;;;;1.67;0.52;;;;;;;;;;5003792;28;20494;-81
2021/05/26 13:19:03;;;;;;;1.75;0.50;;;;;;;;;;5001947;28;20005;-81
2021/05/26 13:21:28;;;;;;;1.67;0.60;;;;;;;;;;4981259;28;20021;-81
2021/05/26 13:23:53;;;;;;;2.88;0.60;;;;;;;;;;5004882;28;20065;-81
2021/05/26 13:26:19;;;;;;;1.73;0.60;;;;;;;;;;4998981;28;20025;-81
2021/05/26 13:28:44;;;;;;;4.65;0.88;;;;;;;;;;5004618;28;20033;-81
2021/05/26 13:31:10;;;;;;;2.75;1.00;;;;;;;;;;5017808;28;20022;-81
2021/05/26 13:33:35;;;;;;;2.22;0.63;;;;;;;;;;5000486;28;20021;-81
2021/05/26 13:36:00;;;;;;;2.83;0.85;;;;;;;;;;5001959;28;20363;-81
2021/05/26 13:38:26;;;;;;;1.63;0.70;;;;;;;;;;4996714;28;20018;-80
2021/05/26 13:40:52;;;;;;;3.53;0.68;;;;;;;;;;5011037;28;20025;-80
2021/05/26 13:43:18;;;;;;;2.13;0.60;;;;;;;;;;5002258;28;20041;-81
2021/05/26 13:45:43;;;;;;;3.83;0.65;;;;;;;;;;5009226;28;20038;-80
2021/05/26 13:48:10;;;;;;;2.42;0.60;;;;;;;;;;5011599;28;20096;-81
2021/05/26 13:50:37;;;;;;;3.85;0.90;;;;;;;;;;4999444;28;20074;-80
2021/05/26 13:53:03;;;;;;;2.25;0.70;;;;;;;;;;4999576;28;20154;-80
2021/05/26 13:55:29;;;;;;;1.98;0.60;;;;;;;;;;5012389;28;20057;-80
2021/05/26 13:57:59;;;;;;;3.28;0.90;;;;;;;;;;5010883;28;20044;-81
2021/05/26 14:00:26;;;;;;;3.10;1.02;;;;;;;;;;4994647;28;20474;-80
2021/05/26 14:02:51;;;;;;;3.28;1.08;;;;;;;;;;5010174;28;20010;-80
2021/05/26 14:05:17;;;;;;;2.97;0.88;;;;;;;;;;5012850;28;20026;-81
2021/05/26 14:07:47;;;;;;;3.30;0.98;;;;;;;;;;5015116;28;20497;-80
2021/05/26 14:10:16;;;;;;;2.75;0.90;;;;;;;;;;5001386;28;20325;-80
2021/05/26 14:12:47;;;;;;;3.15;1.10;;;;;;;;;;4989864;28;20458;-80
2021/05/26 14:15:13;;;;;;;5.25;1.25;;;;;;;;;;4986336;28;20022;-80
2021/05/26 14:17:38;;;;;;;5.53;1.10;;;;;;;;;;4999042;28;20527;-80
2021/05/26 14:20:04;;;;;;;4.68;1.00;;;;;;;;;;4999857;28;20026;-80
2021/05/26 14:22:31;;;;;;;3.35;1.08;;;;;;;;;;5011287;28;20475;-80
2021/05/26 14:24:56;;;;;;;3.92;0.90;;;;;;;;;;4997335;28;20069;-80
2021/05/26 14:27:22;;;;;;;0.98;0.50;;;;;;;;;;4999696;28;20411;-80
2021/05/26 14:29:47;;;;;;;2.05;0.63;;;;;;;;;;4995790;28;20029;-82
2021/05/26 14:32:12;;;;;;;2.92;0.80;;;;;;;;;;4984614;28;20025;-82
2021/05/26 14:34:40;;;;;;;2.78;0.68;;;;;;;;;;4986370;28;20021;-82
2021/05/26 14:37:10;;;;;;;3.53;0.60;;;;;;;;;;5020911;28;20086;-82
2021/05/26 14:39:38;;;;;;;3.22;0.70;;;;;;;;;;5024264;28;20010;-84
2021/05/26 14:42:10;;;;;;;3.60;0.60;;;;;;;;;;5013771;28;20095;-84
2021/05/26 14:44:35;;;;;;;1.98;0.60;;;;;;;;;;5018345;28;20017;-83
2021/05/26 14:47:00;;;;;;;1.83;0.70;;;;;;;;;;5026040;28;20025;-81
2021/05/26 14:49:25;;;;;;;1.90;0.80;;;;;;;;;;5006827;28;20057;-82